createdAt,value
2023-04-15T00:00:57.539Z,9.35
2023-04-15T00:03:25.133Z,12.23
2023-04-15T00:05:52.749Z,13.15
2023-04-15T00:08:20.558Z,11.95
2023-04-15T00:10:47.835Z,8.52
2023-04-15T00:13:15.445Z,12.35
2023-04-15T00:15:43.165Z,9.52
2023-04-15T00:18:10.452Z,9.60
2023-04-15T00:20:37.775Z,10.13
2023-04-15T00:23:05.574Z,12.50
2023-04-15T00:25:32.996Z,11.98
2023-04-15T00:28:00.239Z,10.43
2023-04-15T00:30:27.379Z,12.30
2023-04-15T00:32:54.630Z,11.45
2023-04-15T00:35:24.022Z,12.38
2023-04-15T00:37:51.473Z,11.82
2023-04-15T00:40:20.277Z,12.77
2023-04-15T00:42:47.491Z,11.50
2023-04-15T00:45:15.546Z,13.45
2023-04-15T00:47:43.648Z,13.75
2023-04-15T00:50:11.323Z,13.50
2023-04-15T00:52:38.936Z,11.82
2023-04-15T00:55:06.588Z,11.95
2023-04-15T00:57:34.067Z,13.77
2023-04-15T01:00:01.631Z,10.82
2023-04-15T01:02:28.914Z,15.23
2023-04-15T01:04:57.144Z,10.85
2023-04-15T01:07:24.299Z,12.63
2023-04-15T01:09:51.684Z,11.10
2023-04-15T01:12:19.565Z,15.18
2023-04-15T01:14:46.653Z,12.68
2023-04-15T01:17:13.819Z,12.50
2023-04-15T01:19:41.485Z,12.10
2023-04-15T01:22:09.122Z,10.60
2023-04-15T01:24:38.759Z,11.73
2023-04-15T01:27:05.964Z,11.30
2023-04-15T01:29:33.749Z,11.88
2023-04-15T01:32:00.966Z,13.43
2023-04-15T01:34:28.093Z,13.85
2023-04-15T01:36:55.549Z,9.60
2023-04-15T01:39:22.734Z,13.02
2023-04-15T01:41:49.837Z,11.55
2023-04-15T01:44:17.023Z,11.90
2023-04-15T01:46:44.144Z,10.35
2023-04-15T01:49:11.637Z,14.82
2023-04-15T01:51:38.750Z,11.02
2023-04-15T01:54:07.081Z,12.90
2023-04-15T01:56:34.190Z,14.25
2023-04-15T01:59:01.925Z,11.90
2023-04-15T02:01:29.489Z,12.18
2023-04-15T02:03:59.652Z,12.75
2023-04-15T02:06:28.141Z,10.25
2023-04-15T02:08:56.006Z,10.93
2023-04-15T02:11:23.165Z,12.50
2023-04-15T02:13:50.295Z,12.23
2023-04-15T02:16:19.538Z,11.40
2023-04-15T02:18:47.040Z,12.32
2023-04-15T02:21:14.445Z,11.45
2023-04-15T02:23:41.662Z,12.98
2023-04-15T02:26:08.809Z,13.65
2023-04-15T02:28:36.163Z,10.77
2023-04-15T02:31:06.415Z,12.18
2023-04-15T02:33:33.629Z,12.02
2023-04-15T02:36:01.648Z,11.43
2023-04-15T02:38:29.268Z,10.18
2023-04-15T02:40:57.257Z,9.05
2023-04-15T02:43:24.489Z,13.95
2023-04-15T02:45:52.505Z,13.13
2023-04-15T02:48:21.969Z,11.75
2023-04-15T02:50:49.085Z,10.93
2023-04-15T02:53:17.495Z,11.07
2023-04-15T02:55:44.649Z,11.40
2023-04-15T02:58:11.809Z,12.68
2023-04-15T03:00:39.108Z,13.02
2023-04-15T03:03:07.091Z,11.32
2023-04-15T03:05:34.361Z,13.65
2023-04-15T03:08:04.128Z,10.95
2023-04-15T03:10:31.554Z,12.20
2023-04-15T03:12:58.762Z,11.20
2023-04-15T03:15:26.028Z,14.98
2023-04-15T03:17:54.871Z,12.00
2023-04-15T03:20:21.949Z,12.77
2023-04-15T03:22:49.325Z,14.80
2023-04-15T03:25:16.918Z,13.32
2023-04-15T03:27:44.086Z,14.00
2023-04-15T03:30:12.430Z,11.43
2023-04-15T03:32:40.868Z,10.02
2023-04-15T03:35:09.642Z,11.50
2023-04-15T03:37:36.847Z,11.07
2023-04-15T03:40:04.102Z,14.38
2023-04-15T03:42:31.606Z,11.20
2023-04-15T03:44:58.754Z,13.95
2023-04-15T03:47:25.926Z,12.18
2023-04-15T03:49:52.983Z,11.35
2023-04-15T03:52:20.044Z,11.63
2023-04-15T03:54:47.713Z,11.60
2023-04-15T03:57:14.830Z,11.73
2023-04-15T03:59:41.943Z,10.95
2023-04-15T04:02:09.111Z,14.80
2023-04-15T04:04:36.284Z,11.57
2023-04-15T04:07:03.533Z,12.18
2023-04-15T04:09:30.671Z,11.43
2023-04-15T04:11:57.884Z,12.45
2023-04-15T04:14:29.451Z,13.63
2023-04-15T04:16:57.444Z,11.05
2023-04-15T04:19:24.627Z,15.50
2023-04-15T04:21:51.994Z,14.27
2023-04-15T04:24:19.183Z,12.63
2023-04-15T04:26:46.297Z,14.25
2023-04-15T04:29:13.413Z,12.77
2023-04-15T04:31:40.665Z,11.80
2023-04-15T04:34:07.738Z,14.45
2023-04-15T04:36:34.931Z,13.68
2023-04-15T04:39:02.313Z,12.32
2023-04-15T04:41:29.786Z,11.80
2023-04-15T04:43:56.899Z,13.32
2023-04-15T04:46:24.120Z,14.20
2023-04-15T04:48:51.288Z,12.85
2023-04-15T04:51:18.853Z,13.63
2023-04-15T04:53:46.118Z,13.88
2023-04-15T04:56:13.260Z,14.80
2023-04-15T04:58:40.345Z,15.27
2023-04-15T05:01:07.820Z,14.05
2023-04-15T05:03:35.137Z,13.15
2023-04-15T05:06:06.107Z,16.42
2023-04-15T05:08:33.236Z,13.70
2023-04-15T05:11:00.558Z,13.20
2023-04-15T05:13:27.697Z,13.27
2023-04-15T05:15:54.872Z,13.65
2023-04-15T05:18:22.067Z,16.65
2023-04-15T05:20:50.091Z,14.05
2023-04-15T05:23:17.705Z,12.48
2023-04-15T05:25:45.041Z,13.23
2023-04-15T05:28:12.381Z,12.88
2023-04-15T05:30:39.560Z,12.30
2023-04-15T05:33:06.670Z,13.82
2023-04-15T05:35:33.809Z,15.48
2023-04-15T05:38:01.112Z,13.02
2023-04-15T05:40:28.305Z,14.25
2023-04-15T05:42:55.376Z,14.40
2023-04-15T05:45:22.487Z,16.95
2023-04-15T05:47:54.234Z,16.25
2023-04-15T05:50:21.617Z,15.18
2023-04-15T05:52:48.730Z,13.40
2023-04-15T05:55:16.077Z,12.95
2023-04-15T05:57:43.253Z,13.73
2023-04-15T06:00:10.580Z,14.65
2023-04-15T06:02:38.106Z,14.48
2023-04-15T06:05:09.833Z,13.85
2023-04-15T06:07:37.543Z,12.98
2023-04-15T06:10:05.772Z,15.25
2023-04-15T06:12:32.901Z,14.63
2023-04-15T06:15:00.369Z,14.27
2023-04-15T06:17:27.813Z,18.70
2023-04-15T06:19:55.796Z,16.02
2023-04-15T06:22:23.595Z,14.55
2023-04-15T06:24:51.482Z,17.10
2023-04-15T06:27:18.639Z,12.93
2023-04-15T06:29:46.252Z,15.35
2023-04-15T06:32:13.702Z,14.20
2023-04-15T06:34:40.780Z,14.07
2023-04-15T06:37:09.918Z,13.00
2023-04-15T06:39:37.695Z,13.43
2023-04-15T06:42:04.867Z,14.55
2023-04-15T06:44:33.795Z,13.70
2023-04-15T06:47:01.239Z,16.67
2023-04-15T06:49:28.316Z,16.50
2023-04-15T06:51:55.561Z,16.23
2023-04-15T06:54:22.916Z,15.52
2023-04-15T06:56:49.993Z,16.67
2023-04-15T06:59:17.137Z,14.57
2023-04-15T07:01:44.368Z,14.32
2023-04-15T07:04:12.601Z,15.50
2023-04-15T07:06:39.805Z,14.00
2023-04-15T07:09:06.921Z,16.30
2023-04-15T07:11:33.976Z,17.50
2023-04-15T07:14:01.373Z,14.40
2023-04-15T07:16:29.879Z,14.55
2023-04-15T07:18:57.196Z,14.98
2023-04-15T07:21:25.042Z,15.07
2023-04-15T07:23:52.482Z,15.73
2023-04-15T07:26:19.597Z,12.85
2023-04-15T07:28:47.415Z,14.00
2023-04-15T07:31:15.047Z,15.05
2023-04-15T07:33:42.232Z,14.75
2023-04-15T07:36:10.719Z,14.07
2023-04-15T07:38:37.883Z,14.25
2023-04-15T07:41:05.036Z,13.13
2023-04-15T07:43:32.102Z,13.45
2023-04-15T07:45:59.946Z,12.55
2023-04-15T07:48:27.121Z,12.48
2023-04-15T07:50:54.174Z,12.95
2023-04-15T07:53:21.309Z,11.43
2023-04-15T07:55:48.447Z,14.02
2023-04-15T07:58:15.610Z,11.77
2023-04-15T08:00:42.802Z,13.30
2023-04-15T08:03:10.127Z,13.55
2023-04-15T08:05:37.421Z,13.38
2023-04-15T08:08:04.979Z,12.52
2023-04-15T08:10:32.297Z,13.60
2023-04-15T08:12:59.527Z,11.90
2023-04-15T08:15:27.232Z,13.32
2023-04-15T08:17:54.346Z,12.50
2023-04-15T08:20:21.542Z,11.55
2023-04-15T08:22:51.848Z,10.57
2023-04-15T08:25:20.158Z,9.25
2023-04-15T08:27:47.274Z,10.60
2023-04-15T08:30:14.708Z,9.77
2023-04-15T08:32:43.152Z,10.10
2023-04-15T08:35:10.413Z,8.57
2023-04-15T08:37:37.517Z,8.70
2023-04-15T08:40:04.985Z,10.35
2023-04-15T08:42:33.478Z,10.57
2023-04-15T08:45:01.736Z,9.70
2023-04-15T08:47:33.908Z,12.43
2023-04-15T08:50:04.355Z,12.93
2023-04-15T08:52:32.148Z,10.55
2023-04-15T08:55:00.898Z,11.55
2023-04-15T08:57:29.066Z,10.30
2023-04-15T08:59:59.420Z,9.52
2023-04-15T09:02:27.294Z,9.80
2023-04-15T09:04:54.879Z,8.02
2023-04-15T09:07:22.325Z,9.68
2023-04-15T09:09:50.159Z,8.85
2023-04-15T09:12:17.485Z,10.88
2023-04-15T09:14:47.120Z,8.68
2023-04-15T09:17:14.219Z,8.45
2023-04-15T09:19:41.635Z,8.02
2023-04-15T09:22:08.767Z,8.13
2023-04-15T09:24:38.116Z,8.23
2023-04-15T09:27:05.448Z,7.50
2023-04-15T09:29:32.528Z,7.43
2023-04-15T09:32:10.123Z,8.50
2023-04-15T09:34:37.871Z,10.63
2023-04-15T09:37:04.975Z,8.27
2023-04-15T09:39:48.548Z,8.30
2023-04-15T09:42:17.401Z,9.25
2023-04-15T09:44:44.497Z,8.57
2023-04-15T09:47:27.632Z,10.23
2023-04-15T09:49:58.618Z,9.80
2023-04-15T09:52:26.092Z,9.45
2023-04-15T09:54:57.686Z,11.13
2023-04-15T09:57:25.313Z,8.88
2023-04-15T09:59:52.787Z,9.20
2023-04-15T10:02:23.335Z,9.15
2023-04-15T10:04:50.902Z,9.80
2023-04-15T10:07:20.647Z,8.93
2023-04-15T10:09:49.084Z,7.95
2023-04-15T10:12:19.590Z,9.20
2023-04-15T10:14:49.500Z,6.65
2023-04-15T10:17:18.499Z,8.35
2023-04-15T10:19:45.685Z,6.80
2023-04-15T10:22:13.131Z,11.40
2023-04-15T10:24:40.885Z,5.85
2023-04-15T10:27:08.230Z,8.18
2023-04-15T10:29:35.380Z,8.00
2023-04-15T10:32:02.705Z,7.97
2023-04-15T10:34:30.648Z,9.30
2023-04-15T10:36:58.977Z,7.25
2023-04-15T10:39:35.285Z,5.53
2023-04-15T10:42:20.580Z,8.52
2023-04-15T10:44:54.046Z,5.72
2023-04-15T10:47:22.085Z,7.55
2023-04-15T10:49:49.910Z,6.78
2023-04-15T10:52:18.148Z,6.65
2023-04-15T10:54:45.679Z,8.10
2023-04-15T10:57:17.090Z,6.07
2023-04-15T10:59:59.186Z,5.97
2023-04-15T11:02:44.574Z,6.45
2023-04-15T11:05:12.617Z,5.80
2023-04-15T11:07:50.378Z,5.00
2023-04-15T11:10:26.785Z,8.20
2023-04-15T11:12:59.995Z,6.57
2023-04-15T11:15:30.996Z,6.93
2023-04-15T11:17:58.644Z,12.60
2023-04-15T11:20:26.143Z,8.88
2023-04-15T11:23:14.655Z,6.85
2023-04-15T11:25:43.303Z,5.10
2023-04-15T11:28:11.902Z,6.32
2023-04-15T11:30:39.597Z,5.95
2023-04-15T11:33:08.562Z,6.97
2023-04-15T11:35:35.968Z,5.57
2023-04-15T11:38:06.498Z,6.22
2023-04-15T11:40:33.626Z,6.75
2023-04-15T11:43:11.140Z,5.40
2023-04-15T11:45:39.055Z,6.20
2023-04-15T11:48:10.520Z,6.60
2023-04-15T11:50:40.530Z,7.55
2023-04-15T11:53:11.863Z,6.25
2023-04-15T11:55:47.497Z,7.68
2023-04-15T11:58:22.328Z,7.13
2023-04-15T12:00:56.523Z,5.85
2023-04-15T12:03:25.207Z,6.50
2023-04-15T12:06:17.228Z,10.50
2023-04-15T12:11:37.068Z,7.63
2023-04-15T12:14:04.291Z,4.05
2023-04-15T12:16:31.642Z,5.55
2023-04-15T12:18:59.510Z,6.95
2023-04-15T12:21:28.154Z,4.35
2023-04-15T12:23:55.996Z,5.85
2023-04-15T12:26:30.245Z,6.22
2023-04-15T12:29:01.873Z,3.95
2023-04-15T12:31:29.142Z,6.68
2023-04-15T12:33:56.876Z,3.80
2023-04-15T12:36:24.328Z,5.50
2023-04-15T12:38:51.496Z,5.60
2023-04-15T12:41:18.593Z,7.07
2023-04-15T12:43:47.034Z,6.60
2023-04-15T12:46:15.907Z,5.53
2023-04-15T12:48:43.250Z,4.88
2023-04-15T12:51:10.328Z,5.00
2023-04-15T12:53:37.445Z,5.25
2023-04-15T12:56:04.605Z,5.57
2023-04-15T12:58:31.719Z,4.57
2023-04-15T13:00:58.911Z,4.38
2023-04-15T13:03:26.249Z,6.80
2023-04-15T13:05:53.491Z,4.80
2023-04-15T13:08:21.067Z,7.95
2023-04-15T13:10:48.250Z,7.55
2023-04-15T13:13:15.814Z,6.88
2023-04-15T13:15:45.604Z,6.85
2023-04-15T13:18:13.036Z,3.95
2023-04-15T13:20:40.790Z,5.07
2023-04-15T13:23:08.227Z,5.70
2023-04-15T13:25:35.339Z,5.65
2023-04-15T13:28:03.019Z,6.13
2023-04-15T13:30:31.208Z,6.07
2023-04-15T13:32:58.504Z,4.93
2023-04-15T13:35:25.776Z,6.43
2023-04-15T13:37:54.980Z,5.93
2023-04-15T13:40:22.055Z,4.60
2023-04-15T13:42:49.196Z,5.68
2023-04-15T13:45:16.323Z,6.75
2023-04-15T13:47:43.510Z,4.47
2023-04-15T13:50:11.116Z,4.07
2023-04-15T13:52:38.205Z,5.43
2023-04-15T13:55:18.324Z,4.28
2023-04-15T13:57:47.800Z,5.90
2023-04-15T14:00:15.430Z,4.18
2023-04-15T14:02:42.999Z,4.95
2023-04-15T14:05:11.282Z,3.75
2023-04-15T14:07:38.394Z,5.57
2023-04-15T14:10:05.737Z,3.55
2023-04-15T14:12:32.892Z,6.25
2023-04-15T14:15:00.244Z,6.35
2023-04-15T14:17:27.777Z,4.35
2023-04-15T14:19:54.908Z,4.43
2023-04-15T14:22:22.093Z,4.97
2023-04-15T14:24:49.284Z,5.70
2023-04-15T14:27:16.728Z,4.72
2023-04-15T14:29:43.921Z,3.30
2023-04-15T14:32:12.541Z,4.88
2023-04-15T14:34:40.317Z,3.38
2023-04-15T14:37:07.584Z,5.85
2023-04-15T14:39:34.632Z,4.90
2023-04-15T14:42:01.799Z,4.22
2023-04-15T14:44:29.152Z,5.90
2023-04-15T14:46:56.534Z,4.93
2023-04-15T14:49:24.355Z,4.95
2023-04-15T14:51:51.697Z,6.00
2023-04-15T14:54:19.773Z,5.55
2023-04-15T14:56:48.280Z,5.25
2023-04-15T14:59:15.454Z,7.20
2023-04-15T15:01:42.578Z,6.47
2023-04-15T15:04:10.958Z,4.38
2023-04-15T15:06:38.460Z,4.82
2023-04-15T15:09:05.910Z,8.32
2023-04-15T15:11:33.210Z,5.80
2023-04-15T15:14:00.575Z,6.50
2023-04-15T15:16:29.253Z,5.22
2023-04-15T15:18:56.739Z,3.58
2023-04-15T15:21:23.909Z,4.07
2023-04-15T15:23:50.997Z,7.40
2023-04-15T15:26:19.298Z,5.65
2023-04-15T15:28:46.702Z,5.85
2023-04-15T15:31:13.831Z,5.80
2023-04-15T15:33:40.996Z,2.70
2023-04-15T15:36:08.111Z,6.35
2023-04-15T15:38:35.610Z,3.17
2023-04-15T15:41:03.004Z,3.13
2023-04-15T15:43:30.339Z,4.28
2023-04-15T15:45:57.483Z,7.53
2023-04-15T15:48:24.761Z,6.15
2023-04-15T15:50:52.895Z,6.22
2023-04-15T15:53:21.256Z,9.20
2023-04-15T15:55:48.668Z,8.63
2023-04-15T15:58:16.642Z,4.68
2023-04-15T16:00:43.871Z,5.43
2023-04-15T16:03:11.221Z,4.65
2023-04-15T16:05:38.864Z,7.47
2023-04-15T16:08:06.289Z,8.50
2023-04-15T16:10:33.453Z,7.63
2023-04-15T16:13:00.672Z,6.65
2023-04-15T16:15:27.868Z,8.95
2023-04-15T16:17:54.988Z,6.60
2023-04-15T16:20:22.081Z,5.95
2023-04-15T16:22:49.178Z,6.57
2023-04-15T16:25:16.358Z,4.90
2023-04-15T16:27:57.815Z,6.03
2023-04-15T16:30:30.537Z,6.82
2023-04-15T16:32:58.060Z,7.43
2023-04-15T16:35:25.220Z,4.63
2023-04-15T16:37:52.345Z,5.75
2023-04-15T16:40:19.429Z,6.05
2023-04-15T16:42:46.765Z,3.70
2023-04-15T16:45:13.934Z,5.55
2023-04-15T16:47:41.668Z,9.30
2023-04-15T16:50:09.474Z,8.00
2023-04-15T16:52:36.684Z,6.72
2023-04-15T16:55:05.124Z,4.90
2023-04-15T16:57:54.052Z,4.72
2023-04-15T17:00:20.161Z,7.78
2023-04-15T17:02:47.366Z,4.60
2023-04-15T17:05:14.612Z,6.43
2023-04-15T17:07:41.819Z,3.35
2023-04-15T17:10:09.284Z,3.03
2023-04-15T17:12:36.421Z,5.95
2023-04-15T17:15:03.607Z,3.97
2023-04-15T17:17:30.805Z,6.47
2023-04-15T17:19:57.920Z,6.68
2023-04-15T17:22:25.045Z,6.65
2023-04-15T17:24:52.147Z,4.05
2023-04-15T17:27:19.245Z,9.75
2023-04-15T17:29:46.365Z,9.38
2023-04-15T17:32:13.616Z,6.60
2023-04-15T17:34:50.796Z,8.13
2023-04-15T17:37:18.602Z,7.07
2023-04-15T17:39:46.180Z,7.72
2023-04-15T17:42:14.096Z,8.50
2023-04-15T17:44:41.378Z,5.32
2023-04-15T17:47:08.555Z,8.85
2023-04-15T17:49:37.705Z,10.45
2023-04-15T17:52:04.859Z,6.57
2023-04-15T17:54:31.934Z,10.65
2023-04-15T17:57:00.027Z,8.57
2023-04-15T17:59:28.072Z,5.20
2023-04-15T18:01:56.076Z,9.88
2023-04-15T18:04:26.474Z,5.70
2023-04-15T18:06:54.159Z,6.20
2023-04-15T18:09:21.682Z,6.72
2023-04-15T18:11:49.076Z,6.65
2023-04-15T18:14:30.770Z,8.13
2023-04-15T18:17:00.918Z,4.18
2023-04-15T18:19:28.093Z,3.97
2023-04-15T18:21:55.365Z,5.55
2023-04-15T18:24:23.067Z,4.72
2023-04-15T18:26:50.238Z,5.78
2023-04-15T18:29:18.458Z,3.70
2023-04-15T18:31:45.598Z,6.65
2023-04-15T18:34:13.215Z,4.00
2023-04-15T18:36:40.466Z,6.60
2023-04-15T18:39:07.838Z,5.95
2023-04-15T18:41:35.305Z,4.30
2023-04-15T18:44:02.395Z,3.83
2023-04-15T18:46:29.595Z,8.30
2023-04-15T18:48:56.768Z,5.35
2023-04-15T18:51:23.821Z,5.68
2023-04-15T18:53:51.436Z,3.47
2023-04-15T18:56:18.614Z,8.95
2023-04-15T18:59:19.417Z,6.00
2023-04-15T19:01:33.442Z,2.13
2023-04-15T19:04:01.597Z,5.80
2023-04-15T19:06:29.384Z,4.18
2023-04-15T19:08:58.416Z,3.53
2023-04-15T19:11:26.082Z,1.55
2023-04-15T19:13:53.339Z,4.95
2023-04-15T19:16:20.631Z,5.20
2023-04-15T19:18:47.748Z,4.25
2023-04-15T19:21:15.226Z,6.07
2023-04-15T19:23:47.352Z,7.07
2023-04-15T19:26:14.519Z,4.22
2023-04-15T19:28:41.741Z,6.43
2023-04-15T19:31:08.902Z,6.20
2023-04-15T19:33:36.089Z,10.48
2023-04-15T19:36:04.296Z,4.82
2023-04-15T19:38:31.657Z,7.07
2023-04-15T19:40:59.127Z,9.23
2023-04-15T19:43:26.372Z,8.73
2023-04-15T19:45:54.624Z,6.18
2023-04-15T19:48:23.152Z,9.98
2023-04-15T19:50:50.457Z,7.43
2023-04-15T19:53:17.590Z,6.03
2023-04-15T19:55:44.896Z,5.82
2023-04-15T19:58:12.026Z,5.28
2023-04-15T20:00:39.308Z,9.07
2023-04-15T20:03:06.543Z,12.00
2023-04-15T20:05:33.814Z,9.90
2023-04-15T20:08:01.620Z,7.15
2023-04-15T20:10:29.677Z,7.75
2023-04-15T20:12:56.904Z,5.25
2023-04-15T20:15:24.264Z,4.85
2023-04-15T20:17:51.582Z,6.75
2023-04-15T20:20:18.858Z,10.43
2023-04-15T20:22:45.992Z,6.65
2023-04-15T20:25:13.084Z,8.20
2023-04-15T20:27:40.346Z,10.80
2023-04-15T20:30:07.765Z,6.43
2023-04-15T20:32:36.090Z,8.88
2023-04-15T20:35:04.305Z,7.88
2023-04-15T20:37:33.448Z,6.30
2023-04-15T20:40:00.996Z,6.22
2023-04-15T20:42:28.235Z,11.63
2023-04-15T20:44:55.523Z,11.68
2023-04-15T20:47:22.710Z,9.77
2023-04-15T20:49:49.894Z,12.30
2023-04-15T20:52:17.035Z,9.80
2023-04-15T20:54:44.683Z,5.70
2023-04-15T20:57:11.794Z,8.20
2023-04-15T20:59:38.865Z,7.03
2023-04-15T21:02:06.150Z,6.18
2023-04-15T21:04:33.373Z,5.93
2023-04-15T21:07:00.568Z,5.68
2023-04-15T21:09:27.738Z,11.68
2023-04-15T21:12:01.019Z,8.75
2023-04-15T21:14:28.970Z,18.58
2023-04-15T21:16:57.997Z,10.45
2023-04-15T21:19:25.168Z,8.60
2023-04-15T21:21:52.776Z,7.10
2023-04-15T21:24:19.916Z,7.65
2023-04-15T21:26:46.985Z,7.07
2023-04-15T21:29:14.349Z,5.50
2023-04-15T21:31:41.848Z,9.90
2023-04-15T21:34:09.155Z,7.57
2023-04-15T21:36:36.385Z,7.82
2023-04-15T21:39:03.704Z,8.13
2023-04-15T21:41:31.140Z,7.55
2023-04-15T21:43:58.201Z,9.82
2023-04-15T21:46:32.592Z,6.63
2023-04-15T21:49:00.645Z,6.70
2023-04-15T21:51:28.077Z,9.13
2023-04-15T21:53:55.941Z,6.20
2023-04-15T21:56:24.258Z,8.23
2023-04-15T21:58:51.920Z,8.25
2023-04-15T22:01:19.076Z,12.38
2023-04-15T22:03:46.300Z,7.93
2023-04-15T22:06:13.884Z,7.35
2023-04-15T22:08:54.826Z,5.63
2023-04-15T22:11:28.489Z,7.78
2023-04-15T22:13:56.955Z,6.95
2023-04-15T22:16:25.375Z,6.03
2023-04-15T22:18:52.662Z,5.15
2023-04-15T22:21:19.742Z,4.93
2023-04-15T22:23:47.406Z,6.47
2023-04-15T22:26:14.667Z,8.45
2023-04-15T22:28:41.950Z,12.43
2023-04-15T22:31:09.133Z,10.40
2023-04-15T22:33:36.385Z,11.15
2023-04-15T22:36:03.565Z,8.40
2023-04-15T22:38:30.787Z,15.65
2023-04-15T22:40:58.343Z,7.63
2023-04-15T22:43:27.369Z,5.55
2023-04-15T22:45:54.987Z,10.82
2023-04-15T22:48:22.437Z,8.55
2023-04-15T22:50:49.753Z,10.25
2023-04-15T22:53:17.726Z,13.68
2023-04-15T22:55:46.146Z,11.60
2023-04-15T22:58:13.226Z,7.70
2023-04-15T23:00:40.434Z,9.10
2023-04-15T23:03:07.765Z,11.02
2023-04-15T23:05:35.087Z,7.07
2023-04-15T23:08:02.258Z,8.10
2023-04-15T23:10:29.843Z,8.65
2023-04-15T23:12:56.976Z,10.50
2023-04-15T23:15:24.121Z,9.88
2023-04-15T23:17:51.300Z,15.95
2023-04-15T23:20:18.453Z,9.63
2023-04-15T23:22:45.775Z,7.22
2023-04-15T23:25:12.940Z,7.93
2023-04-15T23:27:40.072Z,10.23
2023-04-15T23:30:07.636Z,8.85
2023-04-15T23:32:35.856Z,10.50
2023-04-15T23:35:03.001Z,7.70
2023-04-15T23:37:31.525Z,13.57
2023-04-15T23:39:58.617Z,15.90
2023-04-15T23:42:25.951Z,12.18
2023-04-15T23:44:53.280Z,10.43
2023-04-15T23:47:20.362Z,8.95
2023-04-15T23:49:47.518Z,10.30
2023-04-15T23:52:14.724Z,9.63
2023-04-15T23:54:41.914Z,12.77
2023-04-15T23:57:09.010Z,10.13
2023-04-15T23:59:36.195Z,12.15
